Latest Weather Observations for Nambour

IDQ60801

Issued at 7:32 am EST Thursday 17 August 2017 (issued every 30 minutes, with the page automatically refreshed every 10 minutes)

About weather observations | Map of weather stations | Latest weather observations for QLD | Other Formats
Station Details ID: 040988 Name: NAMBOUR DAFF - HILLSIDE Lat: -26.64 Lon: 152.94 Height: 53.24 m
Data from the previous 72 hours. | See also: Recent months at Nambour
Date/Time
EST
Temp
°C
App
Temp
°C
Dew
Point
°C
Rel
Hum
%
Delta-T
°C
Wind Press
QNH
hPa
Press
MSL
hPa
Rain since
9am
mm
Dir  Spd
km/h
Gust
km/h
Spd
kts
Gust
kts
17/07:30am 19.4 20.3 15.1 76 2.5 SE 4 11 2 6 1012.9 1012.8 0.0
17/07:00am 18.1 19.1 15.4 84 1.6 ESE 4 7 2 4 1012.6 1012.5 0.0
17/06:30am 17.1 17.8 15.6 91 0.9 SE 6 9 3 5 1012.3 1012.2 0.0
17/06:00am 17.1 17.8 15.6 91 0.9 ESE 6 7 3 4 1012.2 1012.1 0.0
17/05:30am 17.2 17.9 15.5 90 1.0 ESE 6 9 3 5 1011.9 1011.8 0.0
17/05:00am 17.3 18.0 15.6 90 1.0 ESE 6 9 3 5 1011.5 1011.4 0.0
17/04:30am 17.4 18.1 15.6 89 1.1 E 6 11 3 6 1011.4 1011.3 0.0
17/04:00am 17.6 18.7 15.6 88 1.2 E 4 6 2 3 1011.3 1011.2 0.0
17/03:30am 17.9 18.8 15.0 83 1.7 ENE 4 6 2 3 1011.4 1011.3 0.0
17/03:00am 18.3 18.9 15.2 82 1.8 NNW 6 11 3 6 1011.6 1011.5 0.0
17/02:30am 18.3 18.9 15.2 82 1.8 NW 6 11 3 6 1011.9 1011.8 0.0
17/02:00am 18.7 19.1 15.4 81 1.9 NW 7 13 4 7 1012.1 1012.0 0.0
17/01:30am 18.8 19.5 15.5 81 1.9 NW 6 13 3 7 1012.4 1012.3 0.0
17/01:00am 19.2 19.8 15.7 80 2.1 NNW 7 17 4 9 1012.7 1012.6 0.0
17/12:30am 19.4 19.9 15.5 78 2.3 NNW 7 15 4 8 1013.1 1013.0 0.0
17/12:00am 19.6 20.2 15.7 78 2.3 NNW 7 13 4 7 1013.1 1013.0 0.0
 
Date/Time
EST
Temp
°C
App
Temp
°C
Dew
Point
°C
Rel
Hum
%
Delta-T
°C
Wind Press
QNH
hPa
Press
MSL
hPa
Rain since
9am
mm
Dir  Spd
km/h
Gust
km/h
Spd
kts
Gust
kts
16/11:30pm 19.7 20.4 15.6 77 2.4 N 6 15 3 8 1013.1 1013.0 0.0
16/11:00pm 20.0 20.5 15.6 76 2.6 N 7 13 4 7 1013.1 1013.0 0.0
16/10:30pm 19.9 20.9 15.3 75 2.7 NNE 4 9 2 5 1013.1 1013.0 0.0
16/10:00pm 20.5 20.9 15.3 72 3.1 NNW 7 11 4 6 1013.1 1013.0 0.0
16/09:30pm 20.9 20.5 15.2 70 3.4 NNW 11 20 6 11 1013.1 1013.0 0.0
16/09:00pm 21.1 20.7 15.2 69 3.5 NNW 11 20 6 11 1013.0 1012.9 0.0
16/08:30pm 20.9 21.2 15.0 69 3.5 NNW 7 13 4 7 1013.0 1012.9 0.0
16/08:00pm 21.3 21.7 14.7 66 3.9 N 6 7 3 4 1012.8 1012.7 0.0
16/07:30pm 22.3 22.8 14.9 63 4.4 N 6 13 3 7 1012.4 1012.3 0.0
16/07:00pm 22.9 23.8 15.2 62 4.6 N 4 7 2 4 1011.9 1011.8 0.0
16/06:30pm 23.5 24.1 15.3 60 4.9 NNW 6 9 3 5 1011.4 1011.3 0.0
16/06:00pm 24.6 24.2 12.5 46 7.0 N 6 11 3 6 1011.0 1010.9 0.0
16/05:30pm 26.4 24.7 8.4 32 9.7 NNW 7 11 4 6 1010.6 1010.5 0.0
16/05:00pm 27.7 25.6 8.1 29 10.6 NNW 9 17 5 9 1010.4 1010.3 0.0
16/04:30pm 28.4 25.9 8.1 28 11.1 NNW 11 26 6 14 1010.1 1010.0 0.0
16/04:00pm 28.7 25.1 8.4 28 11.1 NNW 17 28 9 15 1010.1 1010.0 0.0
16/03:30pm 29.1 26.3 8.7 28 11.3 NNW 13 22 7 12 1009.9 1009.8 0.0
16/03:00pm 29.2 25.7 8.8 28 11.3 NNW 17 28 9 15 1010.0 1009.9 0.0
16/02:30pm 29.0 25.9 8.7 28 11.2 NNW 15 24 8 13 1010.3 1010.2 0.0
16/02:00pm 28.6 24.7 8.8 29 10.9 NNW 19 30 10 16 1010.8 1010.7 0.0
16/01:30pm 28.9 26.4 9.6 30 10.8 NNW 13 32 7 17 1011.3 1011.2 0.0
16/01:00pm 27.5 24.5 9.3 32 10.1 NNW 15 24 8 13 1012.0 1011.9 0.0
16/12:30pm 27.3 24.7 9.2 32 10.0 NNW 13 28 7 15 1012.5 1012.4 0.0
16/12:00pm 26.5 23.5 9.4 34 9.4 NNW 15 26 8 14 1013.1 1013.0 0.0
16/11:30am 25.8 22.8 10.8 39 8.4 NNW 17 35 9 19 1013.8 1013.7 0.0
16/11:00am 24.8 22.3 12.4 46 7.1 NNW 17 26 9 14 1014.4 1014.3 0.0
16/10:30am 23.2 20.8 13.9 56 5.4 NNW 19 35 10 19 1015.0 1014.9 0.0
16/10:00am 21.6 19.4 14.5 64 4.2 NNW 19 30 10 16 1015.6 1015.5 0.0
16/09:30am 20.4 18.1 14.1 67 3.7 NW 19 37 10 20 1015.9 1015.8 0.0
16/09:00am 20.0 18.5 14.1 69 3.4 NNW 15 28 8 15 1015.8 1015.7 0.0
16/08:30am 19.4 18.0 14.4 73 2.9 NNW 15 32 8 17 1015.9 1015.8 0.0
16/08:00am 18.6 17.5 14.3 76 2.5 NNW 13 22 7 12 1015.8 1015.7 0.0
16/07:30am 18.0 16.1 14.3 79 2.1 NNW 17 28 9 15 1015.7 1015.6 0.0
16/07:00am 17.4 18.1 14.5 83 1.7 NE 4 15 2 8 1015.7 1015.6 0.0
16/06:30am 16.9 17.4 15.1 89 1.0 NNW 6 20 3 11 1015.7 1015.6 0.0
16/06:00am 16.0 15.7 14.5 91 0.9 NNE 9 17 5 9 1015.6 1015.5 0.0
16/05:30am 15.7 15.4 13.4 86 1.3 NNW 7 13 4 7 1015.1 1015.0 0.0
16/05:00am 15.7 15.3 13.0 84 1.5 NNW 7 13 4 7 1014.7 1014.6 0.0
16/04:30am 15.2 15.2 12.3 83 1.6 NW 4 7 2 4 1014.5 1014.4 0.0
16/04:00am 14.6 14.6 11.2 80 1.8 ENE 2 6 1 3 1014.2 1014.1 0.0
16/03:30am 15.0 15.3 11.0 77 2.1 CALM 0 4 0 2 1014.1 1014.0 0.0
16/03:00am 15.5 15.8 10.9 74 2.5 CALM 0 4 0 2 1014.4 1014.3 0.0
16/02:30am 15.6 15.2 11.2 75 2.4 ESE 4 6 2 3 1014.5 1014.4 0.0
16/02:00am 15.5 14.9 10.3 71 2.7 ESE 4 4 2 2 1014.7 1014.6 0.0
16/01:30am 16.1 15.5 10.4 69 3.0 SE 4 6 2 3 1015.0 1014.9 0.0
16/01:00am 15.8 15.1 10.1 69 3.0 ESE 4 6 2 3 1015.4 1015.3 0.0
16/12:30am 16.2 15.5 10.1 67 3.2 ESE 4 6 2 3 1015.7 1015.6 0.0
16/12:00am 16.2 15.6 10.5 69 3.0 ESE 4 6 2 3 1015.9 1015.8 0.0
 
Date/Time
EST
Temp
°C
App
Temp
°C
Dew
Point
°C
Rel
Hum
%
Delta-T
°C
Wind Press
QNH
hPa
Press
MSL
hPa
Rain since
9am
mm
Dir  Spd
km/h
Gust
km/h
Spd
kts
Gust
kts
15/11:30pm 15.7 15.9 10.5 71 2.8 CALM 0 0 0 0 1015.8 1015.7 0.0
15/11:00pm 15.4 15.6 10.4 72 2.6 CALM 0 0 0 0 1015.8 1015.7 0.0
15/10:30pm 13.8 13.4 8.4 70 2.7 CALM 0 0 0 0 1016.0 1015.9 0.0
15/10:00pm 13.7 13.4 8.5 71 2.6 CALM 0 0 0 0 1016.2 1016.1 0.0
15/09:30pm 14.4 14.2 9.0 70 2.8 CALM 0 0 0 0 1016.2 1016.1 0.0
15/09:00pm 16.3 16.2 9.5 64 3.5 CALM 0 0 0 0 1016.1 1016.0 0.0
15/08:30pm 15.3 15.2 9.4 68 3.0 CALM 0 0 0 0 1016.1 1016.0 0.0
15/08:00pm 15.7 15.5 9.1 65 3.4 CALM 0 0 0 0 1016.0 1015.9 0.0
15/07:30pm 16.8 16.9 10.2 65 3.5 CALM 0 0 0 0 1016.0 1015.9 0.0
15/07:00pm 16.5 16.3 9.0 61 3.9 CALM 0 0 0 0 1016.1 1016.0 0.0
15/06:30pm 17.1 16.9 9.0 59 4.2 CALM 0 0 0 0 1015.9 1015.8 0.0
15/06:00pm 19.3 18.3 8.9 51 5.5 W 4 4 2 2 1015.7 1015.6 0.0
15/05:30pm 20.4 19.7 8.7 47 6.2 NE 2 4 1 2 1015.7 1015.6 0.0
15/05:00pm 21.8 20.3 8.3 42 7.1 ENE 6 9 3 5 1015.6 1015.5 0.0
15/04:30pm 23.0 21.3 7.5 37 8.1 ENE 6 9 3 5 1015.3 1015.2 0.0
15/04:00pm 23.5 21.4 6.7 34 8.7 ENE 7 11 4 6 1015.2 1015.1 0.0
15/03:30pm 23.8 21.1 5.7 31 9.2 E 9 13 5 7 1015.3 1015.2 0.0
15/03:00pm 24.1 20.9 5.0 29 9.6 ENE 11 17 6 9 1015.3 1015.2 0.0
15/02:30pm 24.7 21.6 3.4 25 10.4 NE 9 17 5 9 1015.4 1015.3 0.0
15/02:00pm 25.1 21.5 4.8 27 10.2 ENE 13 20 7 11 1015.4 1015.3 0.0
15/01:30pm 26.8 23.6 3.3 22 11.7 NE 9 20 5 11 1015.5 1015.4 0.0
15/01:00pm 27.0 23.0 0.7 18 12.5 ENE 11 17 6 9 1015.7 1015.6 0.0
15/12:30pm 26.3 22.7 0.9 19 12.0 ENE 9 19 5 10 1016.5 1016.4 0.0
15/12:00pm 26.2 22.7 1.5 20 11.8 E 9 15 5 8 1017.1 1017.0 0.0
15/11:30am 25.5 22.2 0.2 19 11.8 ESE 7 13 4 7 1017.7 1017.7 0.0
15/11:00am 25.7 22.6 1.1 20 11.6 SE 7 15 4 8 1018.2 1018.2 0.0
15/10:30am 24.8 21.6 1.0 21 11.2 ESE 7 13 4 7 1018.4 1018.4 0.0
15/10:00am 24.9 21.8 1.1 21 11.2 ESE 7 13 4 7 1018.8 1018.8 0.0
15/09:30am 24.8 22.8 2.3 23 10.8 E 2 7 1 4 1018.9 1018.9 0.0
15/09:00am 22.4 22.3 10.9 48 6.4 ENE 2 4 1 2 1019.1 1019.1 -
15/08:30am 19.3 19.7 11.3 60 4.4 CALM 0 0 0 0 1019.0 1019.0 -
15/08:00am 16.2 16.6 11.4 73 2.6 CALM 0 0 0 0 1019.0 1019.0 -
15/07:30am 13.9 14.1 10.7 81 1.7 CALM 0 0 0 0 1018.9 1018.9 -
15/07:00am 11.3 10.8 8.0 80 1.6 CALM 0 0 0 0 1018.9 1018.9 -
15/06:30am 10.3 9.3 5.5 72 2.2 CALM 0 0 0 0 1018.6 1018.6 -
15/06:00am 10.5 9.5 5.7 72 2.2 CALM 0 0 0 0 1018.4 1018.4 -
15/05:30am 10.2 9.4 6.5 78 1.7 CALM 0 0 0 0 1017.9 1017.9 -
15/05:00am 10.5 9.7 6.5 76 1.9 CALM 0 0 0 0 1017.5 1017.5 -
15/04:30am 10.7 10.3 8.3 85 1.2 CALM 0 0 0 0 1017.5 1017.5 -
15/04:00am 13.3 12.2 7.1 66 3.0 SW 2 6 1 3 1017.3 1017.2 -
15/03:30am 10.9 10.8 9.5 91 0.7 CALM 0 0 0 0 1017.2 1017.1 -
15/03:00am 11.8 12.0 10.4 91 0.7 CALM 0 2 0 1 1017.0 1016.9 0.0
15/02:30am 12.1 12.5 11.3 95 0.4 CALM 0 4 0 2 1017.0 1016.9 -
15/02:00am 12.6 13.2 11.8 95 0.4 CALM 0 0 0 0 1017.1 1017.0 -
15/01:30am 12.7 13.3 11.9 95 0.4 CALM 0 0 0 0 1017.3 1017.2 -
15/01:00am 13.6 14.5 13.0 96 0.3 CALM 0 4 0 2 1017.5 1017.5 -
15/12:30am 13.7 14.6 12.9 95 0.4 CALM 0 2 0 1 1017.6 1017.6 -
15/12:00am 14.2 15.3 13.6 96 0.3 CALM 0 0 0 0 1017.7 1017.7 -
 
Date/Time
EST
Temp
°C
App
Temp
°C
Dew
Point
°C
Rel
Hum
%
Delta-T
°C
Wind Press
QNH
hPa
Press
MSL
hPa
Rain since
9am
mm
Dir  Spd
km/h
Gust
km/h
Spd
kts
Gust
kts
14/11:30pm 13.9 14.8 13.0 94 0.5 CALM 0 0 0 0 1017.8 1017.8 -
14/11:00pm 13.9 14.8 13.0 94 0.5 CALM 0 0 0 0 1017.9 1017.9 -
14/10:30pm 14.3 15.3 13.2 93 0.6 CALM 0 0 0 0 1018.1 1018.1 -
14/10:00pm 15.0 16.3 14.0 94 0.6 CALM 0 0 0 0 1018.0 1018.0 -
14/09:30pm 15.1 16.3 13.8 92 0.7 CALM 0 0 0 0 1018.0 1018.0 -
14/09:00pm 15.6 17.0 14.3 92 0.7 CALM 0 0 0 0 1018.0 1018.0 0.0
14/08:30pm 15.8 17.1 14.0 89 1.0 CALM 0 0 0 0 1017.9 1017.9 -
14/08:00pm 16.4 18.0 14.9 91 0.9 CALM 0 0 0 0 1017.6 1017.6 -
14/07:30pm 16.5 17.9 14.5 88 1.1 CALM 0 0 0 0 1017.8 1017.8 -
14/07:00pm 17.2 18.5 14.1 82 1.8 CALM 0 0 0 0 1017.5 1017.5 -
14/06:30pm 18.0 19.4 14.5 80 2.0 CALM 0 2 0 1 1017.1 1017.0 -
14/06:00pm 19.4 21.1 15.1 76 2.5 CALM 0 0 0 0 1017.1 1017.0 -
14/05:30pm 20.4 21.5 14.7 70 3.3 NE 2 2 1 1 1016.8 1016.7 -
14/05:00pm 21.4 21.9 15.0 67 3.8 ENE 6 9 3 5 1016.5 1016.4 -
14/04:30pm 22.0 21.5 14.9 64 4.2 E 11 15 6 8 1016.3 1016.2 -
14/04:00pm 22.8 22.3 14.9 61 4.7 E 11 15 6 8 1016.2 1016.1 -
14/03:30pm 22.9 21.9 14.5 59 5.0 E 13 17 7 9 1016.1 1016.0 -
14/03:00pm 24.2 23.7 14.9 56 5.6 E 11 15 6 8 1016.0 1015.9 -
14/02:30pm 24.0 23.2 14.1 54 5.8 E 11 17 6 9 1015.9 1015.8 -
14/01:30pm - - - - - E 13 20 7 11 1016.1 1016.0 0.0
14/01:00pm - - - - - ENE 11 17 6 9 1016.4 1016.3 0.0
14/12:30pm - - - - - WSW 6 15 3 8 1017.0 1016.9 0.0
14/12:00pm - - - - - N 6 15 3 8 1018.1 1018.1 0.0
14/11:30am - - - - - NE 9 11 5 6 1018.6 1018.6 0.0
14/11:00am - - - - - NNE 7 15 4 8 1019.0 1019.0 0.0
14/10:30am - - - - - N 6 13 3 7 1019.5 1019.5 0.0
14/10:00am 22.4 22.4 13.7 58 5.0 N 6 13 3 7 1020.2 1020.2 0.0
14/09:30am 22.4 22.7 15.0 63 4.4 ENE 7 11 4 6 1020.5 1020.5 0.0
14/09:00am 21.2 21.5 14.6 66 3.9 ENE 6 7 3 4 1020.7 1020.7 0.0
14/08:30am 19.7 20.8 14.5 72 3.0 NE 2 2 1 1 1021.0 1021.0 0.0
14/08:00am 17.4 18.6 13.9 80 2.0 CALM 0 0 0 0 1020.7 1020.7 0.0

Other Formats:

Comma delimited format used in spreadsheet applications
http://www.bom.gov.au/fwo/IDQ60801/IDQ60801.95572.axf

JavaScript Object Notation format (JSON) in row-major order
http://www.bom.gov.au/fwo/IDQ60801/IDQ60801.95572.json